Search for airport 
image banner adimage banner adimage banner ad
image banner ad

W73 - Mid Atlantic Soaring Center

Located in Fairfield, United States

ICAO - W73, IATA -

Data provided by Airmate  

General information

Coordinates: N39°45'25" W77°21'5"
Elevation is 573 feet MSL.
Magnetic variation is -10° East
View others Airports in Pennsylvania

Operational data

Special qualification required
Current time UTC:
Current local time:
METAR: KHGR 182253Z 10003KT 10SM CLR 25/03 A3028 RMK AO2 SLP261 T02500033
View NOTAMs / SUP AIP / TFR affecting this airport [VIEW]
Communications frequencies: [VIEW]

Runways:

RWY identifierQFULength (ft)Width (ft)SurfaceLDA (ft)
15270050ASPH
33270050ASPH

Airport contact information

Address: Fairfield United States

Other aviation service providers

Flight schools

Mid-Atlantic Soaring Association

Mid-Atlantic Soaring Association

Satellite view of W73